Time;durP1;ratioP1;P1;durP2;ratioP2;P2;SDS_P1;SDS_P2;PMS_P1;PMS_P2;Temp;Humidity;BMP_temperature;BMP_pressure;BME280_temperature;BME280_humidity;BME280_pressure;Samples;Min_cycle;Max_cycle;Signal;HPM_P1;HPM_P2
2022/02/25 00:00:03;;;;;;;19.52;2.92;;;;;;;8.89;57.68;100865.25;5031684;28;20483;-93
2022/02/25 00:02:29;;;;;;;16.33;2.90;;;;;;;8.76;57.92;100853.72;5055050;28;20112;-91
2022/02/25 00:04:54;;;;;;;23.05;3.55;;;;;;;8.74;58.01;100859.88;5062173;28;20053;-91
2022/02/25 00:07:20;;;;;;;20.95;2.85;;;;;;;8.87;58.06;100856.63;5060593;28;20021;-91
2022/02/25 00:09:45;;;;;;;19.63;2.95;;;;;;;8.97;57.38;100868.28;5054874;28;20029;-93
2022/02/25 00:12:10;;;;;;;19.90;3.25;;;;;;;9.11;57.22;100865.75;5042914;28;20547;-91
2022/02/25 00:14:35;;;;;;;14.13;3.28;;;;;;;9.20;57.12;100876.66;5047390;28;20112;-92
2022/02/25 00:17:01;;;;;;;16.08;2.88;;;;;;;9.04;57.13;100871.41;5039825;28;20471;-92
2022/02/25 00:19:26;;;;;;;18.67;3.25;;;;;;;9.06;58.14;100874.78;5035815;28;20021;-92
2022/02/25 00:21:52;;;;;;;13.75;2.78;;;;;;;9.20;57.42;100882.78;5032100;28;20040;-93
2022/02/25 00:24:17;;;;;;;20.88;3.08;;;;;;;9.17;57.88;100882.94;5037981;28;20033;-93
2022/02/25 00:26:43;;;;;;;20.25;3.08;;;;;;;9.43;57.02;100881.47;5052059;28;20059;-93
2022/02/25 00:29:08;;;;;;;26.77;4.45;;;;;;;9.35;57.26;100885.47;5032633;28;20025;-93
2022/02/25 00:31:34;;;;;;;25.50;3.28;;;;;;;9.28;57.43;100882.31;5049391;28;20025;-92
2022/02/25 00:33:59;;;;;;;22.92;4.32;;;;;;;9.23;57.65;100889.59;5033435;28;20463;-91
2022/02/25 00:36:25;;;;;;;22.88;3.22;;;;;;;9.24;57.95;100880.81;5032764;28;20029;-92
2022/02/25 00:38:51;;;;;;;26.60;4.50;;;;;;;9.28;57.78;100887.56;5049715;28;20112;-93
2022/02/25 00:41:16;;;;;;;19.63;2.97;;;;;;;9.32;57.54;100883.84;5055666;28;20044;-92
2022/02/25 00:43:42;;;;;;;24.60;3.63;;;;;;;9.09;58.01;100895.59;5041736;28;20112;-93
2022/02/25 00:46:07;;;;;;;18.65;3.33;;;;;;;8.99;58.69;100894.41;5038804;28;20025;-93
2022/02/25 00:48:33;;;;;;;21.02;3.35;;;;;;;9.15;58.17;100897.06;5047746;28;20020;-92
2022/02/25 00:50:58;;;;;;;21.35;3.55;;;;;;;8.94;58.87;100899.88;5050652;28;20029;-92
2022/02/25 00:53:23;;;;;;;27.48;3.97;;;;;;;9.02;58.53;100897.69;5035752;28;20091;-92
2022/02/25 00:55:49;;;;;;;18.52;3.20;;;;;;;9.23;57.77;100900.09;5037899;28;20395;-93
2022/02/25 00:58:14;;;;;;;14.43;2.88;;;;;;;9.28;57.62;100900.66;5034169;28;20034;-93
2022/02/25 01:00:40;;;;;;;18.38;3.58;;;;;;;9.17;57.90;100896.03;5036985;28;20059;-94
2022/02/25 01:03:05;;;;;;;22.25;3.28;;;;;;;9.22;57.86;100895.75;5034337;28;20521;-93
2022/02/25 01:05:31;;;;;;;14.70;3.63;;;;;;;9.13;58.38;100900.59;5034353;28;20037;-91
2022/02/25 01:07:56;;;;;;;18.52;3.15;;;;;;;8.83;59.18;100897.84;5052269;28;20039;-93
2022/02/25 01:10:22;;;;;;;14.90;3.40;;;;;;;9.36;57.69;100906.38;5037810;28;20029;-93
2022/02/25 01:12:48;;;;;;;20.10;3.60;;;;;;;9.22;57.74;100901.88;5054754;28;20104;-93
2022/02/25 01:15:14;;;;;;;18.33;2.95;;;;;;;9.25;58.07;100903.47;5048985;28;20032;-94
2022/02/25 01:17:40;;;;;;;16.63;2.90;;;;;;;9.33;57.82;100909.13;5055546;28;20032;-93
2022/02/25 01:20:08;;;;;;;18.15;2.75;;;;;;;9.26;57.94;100905.16;5053390;28;20029;-93
2022/02/25 01:22:34;;;;;;;19.85;3.25;;;;;;;9.30;57.84;100901.44;5055203;28;20029;-92
2022/02/25 01:25:00;;;;;;;28.52;3.67;;;;;;;9.32;58.35;100923.16;5053910;28;20029;-93
2022/02/25 01:27:25;;;;;;;28.30;3.28;;;;;;;9.31;58.31;100916.25;5050111;28;20027;-92
2022/02/25 01:29:51;;;;;;;16.20;3.17;;;;;;;9.09;58.33;100916.56;5046528;28;20053;-93
2022/02/25 01:32:17;;;;;;;23.27;3.28;;;;;;;9.40;57.45;100917.50;5041655;28;20055;-94
2022/02/25 01:34:42;;;;;;;20.73;4.88;;;;;;;9.40;57.66;100922.75;5053361;28;20037;-93
2022/02/25 01:37:08;;;;;;;16.45;3.03;;;;;;;9.37;58.16;100913.28;5037330;28;20087;-94
2022/02/25 01:39:33;;;;;;;29.65;4.13;;;;;;;9.44;57.82;100935.63;5034684;28;20402;-93
2022/02/25 01:41:59;;;;;;;16.58;3.40;;;;;;;9.56;56.21;100927.97;5050464;28;20079;-94
2022/02/25 01:44:27;;;;;;;18.60;3.08;;;;;;;9.46;56.78;100933.75;5047363;28;20048;-94
2022/02/25 01:46:55;;;;;;;16.60;3.50;;;;;;;9.19;57.35;100935.25;5041269;28;20036;-92
2022/02/25 01:49:22;;;;;;;17.25;3.05;;;;;;;9.13;57.59;100950.34;5034376;28;20032;-93
2022/02/25 01:51:51;;;;;;;24.20;3.53;;;;;;;8.96;57.95;100950.41;5034669;28;20084;-92
2022/02/25 01:54:16;;;;;;;17.63;2.75;;;;;;;9.02;58.22;100952.69;5037995;28;20371;-94
2022/02/25 01:56:42;;;;;;;16.83;2.85;;;;;;;8.86;58.09;100954.44;5053849;28;20037;-92
2022/02/25 01:59:09;;;;;;;18.85;2.50;;;;;;;8.90;58.22;100958.56;5052356;28;20376;-93
2022/02/25 02:01:35;;;;;;;17.95;3.15;;;;;;;8.91;57.99;100962.91;5053940;28;20417;-93
2022/02/25 02:04:01;;;;;;;12.43;2.75;;;;;;;8.82;58.34;100976.47;5053462;28;20031;-93
2022/02/25 02:06:27;;;;;;;13.77;2.70;;;;;;;8.72;58.60;100969.06;5032879;28;20047;-93
2022/02/25 02:08:53;;;;;;;14.50;2.80;;;;;;;8.61;58.85;100976.66;5046631;28;20071;-93
2022/02/25 02:11:32;;;;;;;19.35;3.60;;;;;;;8.41;59.21;100985.50;5052945;28;20429;-93
2022/02/25 02:13:59;;;;;;;16.58;2.42;;;;;;;8.61;58.60;100986.25;5050884;28;20033;-92
2022/02/25 02:16:25;;;;;;;10.98;2.70;;;;;;;8.67;58.78;100986.81;5052301;28;20111;-92
2022/02/25 02:18:50;;;;;;;12.57;2.15;;;;;;;8.51;59.67;100993.72;5052086;28;20052;-92
2022/02/25 02:21:16;;;;;;;12.20;2.42;;;;;;;8.58;58.98;100987.25;5052246;28;20063;-93
2022/02/25 02:23:42;;;;;;;15.50;2.58;;;;;;;8.55;59.04;100995.28;5053575;28;20028;-93
2022/02/25 02:26:07;;;;;;;18.30;2.50;;;;;;;8.35;59.74;100996.22;5053291;28;20075;-93
2022/02/25 02:28:33;;;;;;;15.75;3.25;;;;;;;8.29;60.37;101000.00;5053352;28;20025;-92
2022/02/25 02:30:58;;;;;;;14.88;2.47;;;;;;;8.44;59.38;101005.44;5051641;28;20022;-93
2022/02/25 02:33:24;;;;;;;17.85;3.03;;;;;;;8.43;59.39;101003.72;5034845;28;20079;-92
2022/02/25 02:35:49;;;;;;;14.90;2.83;;;;;;;8.31;59.88;101018.22;5051334;28;20045;-93
2022/02/25 02:38:15;;;;;;;19.13;4.00;;;;;;;8.24;59.61;101015.06;5053207;28;20047;-93
2022/02/25 02:40:41;;;;;;;15.50;3.33;;;;;;;8.36;59.47;101018.00;5043273;28;20040;-92
2022/02/25 02:43:07;;;;;;;24.40;4.15;;;;;;;8.36;59.58;101025.88;5033497;28;20426;-92
2022/02/25 02:45:33;;;;;;;20.15;3.25;;;;;;;8.27;60.57;101037.59;5041794;28;20146;-92
2022/02/25 02:47:59;;;;;;;14.60;2.70;;;;;;;8.21;60.18;101036.13;5034020;28;20117;-92
2022/02/25 02:50:24;;;;;;;19.10;2.88;;;;;;;8.30;60.46;101040.09;5039311;28;20079;-93
2022/02/25 02:52:49;;;;;;;18.48;2.88;;;;;;;8.23;60.25;101034.28;5053008;28;20032;-92
2022/02/25 02:55:15;;;;;;;18.02;2.97;;;;;;;8.23;60.91;101031.66;5047681;28;20036;-92
2022/02/25 02:57:43;;;;;;;11.63;2.67;;;;;;;8.17;60.79;101039.81;5032992;28;20052;-93
2022/02/25 03:00:09;;;;;;;18.75;3.03;;;;;;;8.16;60.86;101037.28;5052070;28;20028;-91
2022/02/25 03:02:35;;;;;;;10.88;2.38;;;;;;;8.21;61.20;101051.81;5051038;28;20029;-92
2022/02/25 03:05:01;;;;;;;14.30;2.40;;;;;;;8.13;61.29;101049.56;5035643;28;20314;-92
2022/02/25 03:07:26;;;;;;;18.17;2.88;;;;;;;8.17;61.22;101054.66;5033865;28;20036;-92
2022/02/25 03:09:51;;;;;;;16.60;3.10;;;;;;;8.09;61.26;101055.03;5032656;28;20025;-92
2022/02/25 03:12:17;;;;;;;13.98;2.72;;;;;;;8.14;61.28;101055.66;5040822;28;20498;-92
2022/02/25 03:14:42;;;;;;;12.77;2.30;;;;;;;8.15;61.67;101059.97;5051775;28;20021;-92
2022/02/25 03:17:11;;;;;;;15.77;2.55;;;;;;;8.00;61.54;101066.78;5042326;28;20025;-92
2022/02/25 03:19:36;;;;;;;16.45;2.30;;;;;;;8.08;61.70;101062.03;5034794;28;20025;-91
2022/02/25 03:22:03;;;;;;;12.18;3.55;;;;;;;8.07;61.38;101069.94;5035095;28;20117;-92
2022/02/25 03:24:28;;;;;;;15.18;2.40;;;;;;;7.94;62.36;101060.06;5046887;28;20040;-93
2022/02/25 03:26:54;;;;;;;24.27;2.53;;;;;;;7.99;61.98;101059.00;5045095;28;20103;-92
2022/02/25 03:29:19;;;;;;;18.70;2.38;;;;;;;7.94;62.83;101064.44;5033755;28;20021;-92
2022/02/25 03:31:44;;;;;;;18.70;2.83;;;;;;;7.88;62.66;101078.66;5051287;28;20086;-92
2022/02/25 03:34:10;;;;;;;15.70;3.05;;;;;;;7.94;62.65;101078.38;5052768;28;20533;-92
2022/02/25 03:36:35;;;;;;;14.18;2.95;;;;;;;8.08;62.55;101082.13;5045913;28;20056;-91
2022/02/25 03:39:01;;;;;;;22.45;5.70;;;;;;;8.04;62.43;101091.03;5032657;28;20056;-92
2022/02/25 03:41:27;;;;;;;15.88;2.40;;;;;;;8.11;62.17;101098.50;5032242;28;20495;-92
2022/02/25 03:43:52;;;;;;;19.70;3.40;;;;;;;8.03;62.22;101095.38;5032141;28;20056;-91
2022/02/25 03:46:18;;;;;;;18.92;3.78;;;;;;;7.95;62.01;101108.81;5033340;28;20030;-92
2022/02/25 03:48:44;;;;;;;17.13;2.42;;;;;;;8.00;62.61;101111.25;5032335;28;20092;-92
2022/02/25 03:51:09;;;;;;;11.70;2.63;;;;;;;7.94;62.44;101127.22;5032409;28;20085;-92
2022/02/25 03:53:34;;;;;;;17.65;3.45;;;;;;;7.95;62.35;101134.13;5033215;28;20080;-91
2022/02/25 03:56:00;;;;;;;21.13;3.30;;;;;;;7.94;62.25;101122.81;5045483;28;20063;-92
2022/02/25 03:58:25;;;;;;;15.30;3.00;;;;;;;7.98;62.62;101120.06;5051977;28;20025;-93
2022/02/25 04:00:51;;;;;;;16.17;4.15;;;;;;;7.83;62.50;101119.84;5045558;28;20055;-91
2022/02/25 04:03:16;;;;;;;14.65;2.47;;;;;;;8.00;61.73;101129.53;5038732;28;20045;-91
2022/02/25 04:05:41;;;;;;;19.13;2.63;;;;;;;7.91;62.41;101127.34;5041262;28;20497;-91
2022/02/25 04:08:07;;;;;;;21.40;3.10;;;;;;;7.89;62.57;101135.25;5054404;28;20486;-92
2022/02/25 04:10:33;;;;;;;16.52;2.95;;;;;;;7.99;62.39;101138.28;5051316;28;20040;-91
2022/02/25 04:12:58;;;;;;;18.83;2.90;;;;;;;7.99;62.23;101137.44;5050408;28;20072;-92
2022/02/25 04:15:24;;;;;;;22.77;3.88;;;;;;;7.90;62.46;101136.97;5061333;28;20098;-91
2022/02/25 04:17:49;;;;;;;21.63;3.45;;;;;;;7.95;62.32;101142.81;5067981;28;20483;-90
2022/02/25 04:20:15;;;;;;;17.70;4.57;;;;;;;7.97;62.40;101145.38;5068005;28;20017;-91
2022/02/25 04:22:40;;;;;;;12.43;2.28;;;;;;;7.94;61.93;101138.50;5063134;28;20080;-90
2022/02/25 04:25:06;;;;;;;10.07;2.35;;;;;;;7.94;62.60;101143.75;5050823;28;20022;-92
2022/02/25 04:27:32;;;;;;;21.20;3.00;;;;;;;7.84;62.92;101152.94;5049089;28;20159;-91
2022/02/25 04:29:57;;;;;;;25.05;5.45;;;;;;;7.82;62.87;101146.91;5043093;28;20018;-93
2022/02/25 04:32:22;;;;;;;23.63;3.13;;;;;;;7.83;63.16;101159.06;5039335;28;20483;-92
2022/02/25 04:34:48;;;;;;;14.82;3.03;;;;;;;7.83;63.01;101166.91;5051467;28;20061;-92
2022/02/25 04:37:14;;;;;;;9.10;1.98;;;;;;;7.81;63.38;101173.13;5037405;28;20063;-92
2022/02/25 04:39:39;;;;;;;21.40;3.05;;;;;;;7.79;63.10;101175.78;5056117;28;20064;-92
2022/02/25 04:42:05;;;;;;;30.17;4.20;;;;;;;7.84;62.97;101179.06;5056192;28;20028;-92
2022/02/25 04:44:30;;;;;;;18.92;3.38;;;;;;;7.85;63.31;101193.81;5037799;28;20120;-93
2022/02/25 04:46:56;;;;;;;17.30;2.42;;;;;;;7.86;63.69;101190.31;5049047;28;20053;-92
2022/02/25 04:49:21;;;;;;;7.57;1.85;;;;;;;7.85;63.68;101201.66;5054188;28;20430;-93
2022/02/25 04:51:47;;;;;;;16.90;4.13;;;;;;;7.87;63.87;101204.22;5042337;28;20055;-92
2022/02/25 04:54:12;;;;;;;18.20;2.53;;;;;;;7.91;63.40;101209.25;5036098;28;20029;-93
2022/02/25 04:56:38;;;;;;;22.65;2.58;;;;;;;7.87;63.45;101219.91;5044907;28;20386;-91
2022/02/25 04:59:03;;;;;;;16.60;2.47;;;;;;;7.89;63.42;101218.91;5034784;28;20033;-91
2022/02/25 05:01:28;;;;;;;12.23;3.03;;;;;;;7.81;63.41;101210.56;5035504;28;20036;-92
2022/02/25 05:03:54;;;;;;;11.65;2.67;;;;;;;7.70;63.83;101207.56;5047829;28;20033;-92
2022/02/25 05:06:19;;;;;;;12.38;2.58;;;;;;;7.82;63.38;101217.50;5040273;28;20064;-92
2022/02/25 05:08:45;;;;;;;18.88;3.10;;;;;;;7.67;63.96;101212.94;5045999;28;20032;-91
2022/02/25 05:11:11;;;;;;;20.60;2.90;;;;;;;7.63;64.63;101220.06;5055159;28;20041;-92
2022/02/25 05:13:36;;;;;;;16.80;2.90;;;;;;;7.77;63.93;101219.47;5054053;28;20029;-92
2022/02/25 05:21:30;;;;;;;19.27;2.58;;;;;;;7.66;64.09;101224.28;5053288;28;20446;-91
2022/02/25 05:23:55;;;;;;;18.25;3.00;;;;;;;7.68;64.61;101228.56;5053469;28;20021;-91
2022/02/25 05:26:22;;;;;;;25.30;3.55;;;;;;;7.82;64.40;101227.09;5054896;28;20024;-92
2022/02/25 05:28:48;;;;;;;20.92;2.95;;;;;;;7.71;64.86;101230.19;5045126;28;20103;-92
2022/02/25 05:31:15;;;;;;;18.55;3.13;;;;;;;7.55;65.28;101229.97;5034821;28;20144;-91
2022/02/25 05:33:41;;;;;;;17.55;3.30;;;;;;;7.77;63.63;101229.91;5039866;28;20029;-91
2022/02/25 05:36:06;;;;;;;18.55;3.10;;;;;;;7.81;64.55;101235.88;5051437;28;20478;-92
2022/02/25 05:38:32;;;;;;;19.92;3.28;;;;;;;7.79;64.03;101243.78;5054039;28;20048;-92
2022/02/25 05:40:57;;;;;;;23.10;3.45;;;;;;;7.72;63.77;101242.31;5052056;28;20484;-92
2022/02/25 05:43:22;;;;;;;15.88;2.80;;;;;;;7.75;64.13;101247.44;5034446;28;20025;-93
2022/02/25 05:45:48;;;;;;;22.73;3.15;;;;;;;7.72;64.09;101255.38;5035027;28;20029;-93
2022/02/25 05:48:13;;;;;;;22.85;3.97;;;;;;;7.71;63.83;101257.16;5054328;28;20150;-92
2022/02/25 05:50:39;;;;;;;20.70;2.95;;;;;;;7.81;63.50;101255.00;5049460;28;20124;-92
2022/02/25 05:53:04;;;;;;;17.27;2.63;;;;;;;7.80;63.67;101255.94;5054359;28;20028;-92
2022/02/25 05:55:30;;;;;;;17.30;3.03;;;;;;;7.69;63.41;101250.31;5048456;28;20031;-91
2022/02/25 05:57:55;;;;;;;15.70;2.72;;;;;;;7.82;63.59;101254.13;5034104;28;20475;-92
2022/02/25 06:00:21;;;;;;;14.57;2.65;;;;;;;7.77;63.54;101266.53;5048572;28;20025;-93
2022/02/25 06:02:48;;;;;;;15.95;3.00;;;;;;;7.79;63.00;101254.22;5054278;28;20028;-93
2022/02/25 06:05:15;;;;;;;19.13;3.15;;;;;;;7.74;63.71;101259.66;5045650;28;20071;-92
2022/02/25 06:07:41;;;;;;;23.75;3.22;;;;;;;7.72;62.81;101269.34;5034230;28;20036;-92
2022/02/25 06:10:06;;;;;;;22.88;3.05;;;;;;;7.70;63.88;101272.91;5045176;28;20029;-92
2022/02/25 06:12:32;;;;;;;18.00;2.63;;;;;;;7.62;63.45;101272.38;5053648;28;20044;-92
2022/02/25 06:14:57;;;;;;;24.85;2.92;;;;;;;7.80;63.94;101268.13;5043859;28;20026;-92
2022/02/25 06:17:23;;;;;;;20.95;2.88;;;;;;;7.85;62.64;101268.81;5033838;28;20385;-93
2022/02/25 06:19:48;;;;;;;17.05;2.78;;;;;;;7.80;62.82;101271.63;5040492;28;20028;-92
2022/02/25 06:22:14;;;;;;;23.17;3.47;;;;;;;7.75;63.42;101269.19;5033408;28;20490;-93
2022/02/25 06:24:39;;;;;;;17.10;2.92;;;;;;;7.81;62.58;101281.16;5040339;28;20083;-91
2022/02/25 06:27:05;;;;;;;24.33;3.25;;;;;;;7.69;63.20;101287.75;5053578;28;20025;-91
2022/02/25 06:29:30;;;;;;;16.52;3.00;;;;;;;7.85;63.28;101290.56;5048540;28;20029;-92
2022/02/25 06:31:56;;;;;;;23.40;3.13;;;;;;;7.84;62.71;101291.50;5033948;28;20026;-92
2022/02/25 06:34:21;;;;;;;13.30;2.72;;;;;;;7.83;63.33;101302.84;5035899;28;20025;-91
2022/02/25 06:36:46;;;;;;;15.13;2.92;;;;;;;7.78;63.53;101303.97;5051547;28;20079;-91
2022/02/25 06:39:12;;;;;;;13.15;2.85;;;;;;;7.79;62.71;101308.28;5049235;28;20029;-92
2022/02/25 06:41:38;;;;;;;18.33;2.55;;;;;;;7.74;63.34;101318.91;5043799;28;20151;-92
2022/02/25 06:44:03;;;;;;;26.67;3.72;;;;;;;7.67;63.78;101318.34;5050245;28;20033;-91
2022/02/25 06:46:29;;;;;;;25.80;3.17;;;;;;;7.69;63.93;101326.13;5052958;28;20021;-92
2022/02/25 06:48:54;;;;;;;21.27;3.38;;;;;;;7.65;63.98;101335.00;5042701;28;20059;-92
2022/02/25 06:51:20;;;;;;;19.98;3.17;;;;;;;7.67;64.36;101333.19;5048327;28;20025;-92
2022/02/25 06:53:45;;;;;;;23.20;2.92;;;;;;;7.59;64.46;101346.56;5047637;28;20435;-90
2022/02/25 06:56:11;;;;;;;24.60;3.88;;;;;;;7.73;64.78;101352.06;5047138;28;20060;-91
2022/02/25 06:58:36;;;;;;;19.92;3.28;;;;;;;7.79;64.05;101347.50;5042443;28;20471;-93
2022/02/25 07:01:04;;;;;;;19.65;3.40;;;;;;;7.77;64.20;101360.63;5052258;28;20589;-92
2022/02/25 07:03:29;;;;;;;21.15;3.75;;;;;;;7.77;64.39;101363.25;5036307;28;20505;-90
2022/02/25 07:05:54;;;;;;;21.42;3.47;;;;;;;7.76;64.83;101358.94;5039097;28;20064;-89
2022/02/25 07:08:21;;;;;;;25.80;4.22;;;;;;;7.74;64.19;101365.97;5044795;28;20025;-89
2022/02/25 07:10:47;;;;;;;20.10;3.33;;;;;;;7.86;64.12;101370.72;5043414;28;20070;-90
2022/02/25 07:13:13;;;;;;;20.42;3.28;;;;;;;7.83;64.30;101381.28;5037532;28;20091;-89
2022/02/25 07:15:40;;;;;;;16.75;2.90;;;;;;;7.79;64.67;101384.09;5044927;28;20026;-89
2022/02/25 07:18:06;;;;;;;32.13;3.88;;;;;;;7.70;64.37;101390.53;5031867;28;20021;-89
2022/02/25 07:20:32;;;;;;;15.18;2.85;;;;;;;7.85;64.53;101400.38;5044438;28;20017;-90
2022/02/25 07:22:58;;;;;;;14.00;3.80;;;;;;;7.87;64.26;101408.19;5029237;28;20033;-90
2022/02/25 07:25:23;;;;;;;17.83;2.78;;;;;;;7.87;64.46;101416.84;5040676;28;20502;-89
2022/02/25 07:27:49;;;;;;;11.02;2.20;;;;;;;7.89;64.29;101430.72;5046357;28;20036;-90
2022/02/25 07:30:15;;;;;;;27.10;3.08;;;;;;;7.84;64.69;101427.47;5046796;28;20029;-89
2022/02/25 07:32:41;;;;;;;18.80;3.30;;;;;;;7.94;64.72;101441.88;5040086;28;20029;-90
2022/02/25 07:35:09;;;;;;;18.15;3.75;;;;;;;8.01;63.97;101447.69;5033724;28;20036;-90
2022/02/25 07:37:35;;;;;;;16.70;2.35;;;;;;;8.08;64.03;101451.75;5035859;28;20028;-88
2022/02/25 07:40:00;;;;;;;19.85;3.40;;;;;;;8.16;63.81;101468.91;5050244;28;20029;-89
2022/02/25 07:42:26;;;;;;;16.45;3.05;;;;;;;8.17;63.76;101474.06;5047294;28;20467;-90
2022/02/25 07:44:52;;;;;;;25.30;3.47;;;;;;;8.09;64.16;101482.22;5032445;28;20044;-90
2022/02/25 07:47:19;;;;;;;18.05;3.25;;;;;;;8.22;63.90;101487.81;5050363;28;20390;-91
2022/02/25 07:49:48;;;;;;;26.60;4.10;;;;;;;8.31;63.34;101491.81;5045150;28;20025;-92
2022/02/25 07:52:14;;;;;;;20.63;3.40;;;;;;;8.40;63.69;101495.84;5045827;28;20433;-91
2022/02/25 07:54:39;;;;;;;19.58;3.30;;;;;;;8.47;62.84;101498.19;5034775;28;20112;-92
2022/02/25 07:57:05;;;;;;;15.27;3.80;;;;;;;8.58;63.31;101508.19;5032810;28;20487;-93
2022/02/25 07:59:31;;;;;;;24.83;3.92;;;;;;;8.65;62.64;101514.88;5041279;28;20021;-87
2022/02/25 08:01:56;;;;;;;25.48;4.35;;;;;;;8.72;62.47;101502.34;5038740;28;20051;-88
2022/02/25 08:04:22;;;;;;;11.35;3.63;;;;;;;9.05;62.44;101522.78;5046636;28;20227;-87
2022/02/25 08:06:47;;;;;;;17.33;4.43;;;;;;;9.67;62.04;101523.50;5050099;28;20508;-88
2022/02/25 08:09:13;;;;;;;18.88;3.28;;;;;;;10.72;60.24;101529.81;5040759;28;20067;-88
2022/02/25 08:11:39;;;;;;;25.13;4.38;;;;;;;11.43;57.59;101534.91;5050660;28;20433;-87
2022/02/25 08:14:04;;;;;;;22.73;4.00;;;;;;;11.79;56.31;101539.09;5042078;28;20026;-86
2022/02/25 08:16:30;;;;;;;25.95;3.50;;;;;;;12.28;54.30;101536.38;5032260;28;20468;-88
2022/02/25 08:18:56;;;;;;;19.45;3.28;;;;;;;12.68;52.76;101541.97;5048532;28;20025;-87
2022/02/25 08:21:21;;;;;;;16.50;3.53;;;;;;;13.12;51.25;101548.16;5045630;28;20080;-87
2022/02/25 08:23:47;;;;;;;11.43;2.30;;;;;;;13.27;50.78;101543.75;5047605;28;20428;-85
2022/02/25 08:26:12;;;;;;;20.90;3.40;;;;;;;13.24;50.99;101551.84;5040725;28;20029;-87
2022/02/25 08:28:38;;;;;;;19.55;3.65;;;;;;;13.12;51.87;101563.16;5043517;28;20038;-87
2022/02/25 08:31:04;;;;;;;24.25;3.10;;;;;;;13.16;50.63;101559.38;5057176;28;20025;-87
2022/02/25 08:33:29;;;;;;;22.42;3.67;;;;;;;13.15;50.84;101566.44;5053942;28;20108;-87
2022/02/25 08:35:55;;;;;;;15.38;3.28;;;;;;;13.37;51.24;101567.78;5046284;28;20069;-86
2022/02/25 08:38:20;;;;;;;15.07;3.28;;;;;;;13.71;50.43;101585.03;5033406;28;20021;-86
2022/02/25 08:40:46;;;;;;;19.98;3.67;;;;;;;14.26;50.58;101578.91;5053331;28;20053;-87
2022/02/25 08:43:12;;;;;;;14.77;2.72;;;;;;;14.79;48.22;101578.13;5035717;28;20096;-87
2022/02/25 08:45:41;;;;;;;21.85;4.38;;;;;;;15.11;48.29;101581.25;5055985;28;20570;-95
2022/02/25 08:48:06;;;;;;;17.88;3.15;;;;;;;15.54;47.51;101583.56;5033845;28;20029;-96
2022/02/25 08:50:32;;;;;;;15.27;3.17;;;;;;;16.14;46.23;101592.56;5051818;28;20075;-91
2022/02/25 08:52:57;;;;;;;13.13;2.60;;;;;;;16.86;43.87;101583.75;5038617;28;20017;-91
2022/02/25 08:55:24;;;;;;;15.40;3.22;;;;;;;17.90;42.85;101584.56;5043604;28;20027;-92
2022/02/25 08:57:50;;;;;;;12.40;2.75;;;;;;;18.70;41.31;101584.19;5046805;28;20043;-93
2022/02/25 09:00:19;;;;;;;10.88;2.92;;;;;;;19.15;40.23;101583.13;5055332;28;20032;-92
2022/02/25 09:02:47;;;;;;;11.32;3.58;;;;;;;20.01;38.71;101587.13;5036841;28;20025;-96
2022/02/25 09:05:13;;;;;;;15.50;3.70;;;;;;;20.27;37.53;101583.94;5052318;28;20037;-94
2022/02/25 09:07:39;;;;;;;13.73;3.88;;;;;;;20.45;36.16;101591.25;5052698;28;20029;-93
2022/02/25 09:10:05;;;;;;;10.32;3.42;;;;;;;21.20;36.36;101598.50;5054498;28;20056;-91
2022/02/25 09:12:32;;;;;;;12.13;2.67;;;;;;;20.69;35.56;101601.53;5052100;28;20478;-93
2022/02/25 09:14:57;;;;;;;11.80;2.78;;;;;;;21.65;35.00;101598.81;5049281;28;20026;-90
2022/02/25 09:17:25;;;;;;;12.10;3.00;;;;;;;22.25;34.16;101601.00;5037326;28;20021;-93
2022/02/25 09:19:51;;;;;;;14.75;3.40;;;;;;;22.60;34.03;101602.84;5049988;28;20107;-94
2022/02/25 09:22:16;;;;;;;10.68;2.88;;;;;;;22.70;33.19;101613.47;5046913;28;20120;-95
2022/02/25 09:24:41;;;;;;;9.70;3.10;;;;;;;23.34;32.31;101614.97;5044742;28;20060;-91
2022/02/25 09:27:07;;;;;;;12.27;3.97;;;;;;;23.24;32.06;101630.31;5045411;28;20416;-91
2022/02/25 09:29:32;;;;;;;13.75;2.85;;;;;;;23.30;32.47;101629.69;5042563;28;20123;-94
2022/02/25 09:31:58;;;;;;;11.85;3.30;;;;;;;23.88;31.08;101643.44;5048012;28;20467;-93
2022/02/25 09:34:23;;;;;;;12.13;3.42;;;;;;;24.26;31.29;101647.38;5049761;28;20468;-90
2022/02/25 09:36:49;;;;;;;10.05;2.72;;;;;;;24.52;30.03;101652.66;5038615;28;20416;-92
2022/02/25 09:39:14;;;;;;;15.00;3.00;;;;;;;24.76;29.90;101652.88;5048388;28;20109;-92
2022/02/25 09:41:41;;;;;;;12.45;2.90;;;;;;;24.56;30.11;101661.22;5053624;28;20483;-92
2022/02/25 09:44:07;;;;;;;13.38;3.38;;;;;;;24.45;30.16;101656.19;5041431;28;20426;-93
2022/02/25 09:46:33;;;;;;;9.25;2.60;;;;;;;24.65;30.32;101654.03;5048248;28;20028;-93
2022/02/25 09:48:59;;;;;;;10.90;3.10;;;;;;;24.08;29.83;101660.09;5047032;28;20078;-95
2022/02/25 09:51:25;;;;;;;12.63;3.15;;;;;;;24.12;30.51;101659.59;5044332;28;20507;-91
2022/02/25 09:53:51;;;;;;;13.15;3.10;;;;;;;24.18;30.33;101657.28;5043266;28;20032;-94
2022/02/25 09:56:16;;;;;;;10.10;2.92;;;;;;;23.66;29.73;101661.72;5047926;28;20032;-93
2022/02/25 09:58:42;;;;;;;10.82;2.58;;;;;;;23.90;29.85;101652.16;5055145;28;20032;-92
2022/02/25 10:01:11;;;;;;;10.00;2.67;;;;;;;24.44;29.87;101655.31;5060269;28;20029;-91
2022/02/25 10:03:36;;;;;;;15.80;3.53;;;;;;;24.45;29.40;101648.13;5039310;28;20024;-90
2022/02/25 10:06:05;;;;;;;6.18;2.50;;;;;;;23.43;29.73;101650.69;5050407;28;20032;-87
2022/02/25 10:08:30;;;;;;;9.73;2.58;;;;;;;23.95;29.92;101661.41;5040086;28;20086;-88
2022/02/25 10:10:57;;;;;;;14.13;3.88;;;;;;;24.00;30.39;101668.94;5046849;28;20044;-87
2022/02/25 10:13:28;;;;;;;6.25;1.58;;;;;;;23.39;29.78;101669.94;5035522;28;20033;-89
2022/02/25 10:15:58;;;;;;;11.15;2.30;;;;;;;23.88;29.91;101680.97;5033407;28;20486;-90
2022/02/25 10:18:34;;;;;;;8.73;2.65;;;;;;;24.19;29.69;101680.41;5044160;28;20029;-89
2022/02/25 10:21:02;;;;;;;8.80;1.98;;;;;;;25.05;29.32;101684.59;5028048;28;20040;-87
2022/02/25 10:23:29;;;;;;;8.27;2.22;;;;;;;25.45;28.05;101696.34;5033566;28;20368;-88
2022/02/25 10:26:18;;;;;;;8.13;2.53;;;;;;;24.49;28.34;101695.09;5048187;28;20120;-88
2022/02/25 10:28:50;;;;;;;6.55;2.70;;;;;;;25.07;28.71;101694.16;5045605;28;20108;-87
2022/02/25 10:31:30;;;;;;;14.93;2.67;;;;;;;24.31;29.36;101693.38;5043387;28;20029;-87
2022/02/25 10:34:14;;;;;;;9.02;2.13;;;;;;;24.85;28.36;101698.38;5053123;28;20103;-87
2022/02/25 10:36:55;;;;;;;13.43;2.10;;;;;;;25.49;28.69;101703.94;5053639;28;20029;-87
2022/02/25 10:39:26;;;;;;;9.77;2.10;;;;;;;25.76;28.15;101701.00;5053695;28;20476;-87
2022/02/25 10:42:15;;;;;;;9.52;1.88;;;;;;;25.94;28.29;101711.56;5055404;28;20096;-87
2022/02/25 10:44:45;;;;;;;7.00;1.88;;;;;;;26.45;27.22;101715.50;5053518;28;20499;-87
2022/02/25 10:47:26;;;;;;;11.20;2.75;;;;;;;26.62;25.90;101720.81;5052340;28;20033;-88
2022/02/25 10:50:05;;;;;;;10.23;2.47;;;;;;;27.03;26.58;101724.06;5052218;28;20028;-87
2022/02/25 10:52:37;;;;;;;10.23;2.63;;;;;;;26.80;26.43;101717.88;5040083;28;20487;-88
2022/02/25 10:55:06;;;;;;;12.20;2.75;;;;;;;27.33;26.21;101717.94;5052790;28;20033;-87
2022/02/25 10:57:35;;;;;;;10.20;2.50;;;;;;;26.87;25.97;101726.88;5052832;28;20032;-88
2022/02/25 11:00:01;;;;;;;10.05;2.58;;;;;;;26.59;27.16;101735.50;5052463;28;20029;-87
2022/02/25 11:02:36;;;;;;;9.63;2.63;;;;;;;26.25;27.06;101747.41;5052646;28;20509;-88
2022/02/25 11:05:06;;;;;;;9.52;2.67;;;;;;;26.89;26.14;101741.03;5052455;28;20033;-87
2022/02/25 11:07:34;;;;;;;9.07;2.70;;;;;;;27.24;26.41;101742.28;5052295;28;20565;-88
2022/02/25 11:10:01;;;;;;;15.77;2.92;;;;;;;26.25;26.79;101754.66;5051881;28;20104;-87
2022/02/25 11:12:28;;;;;;;12.85;3.03;;;;;;;26.31;27.04;101753.97;5052357;28;20494;-87
2022/02/25 11:14:54;;;;;;;10.63;2.30;;;;;;;25.56;27.83;101768.59;5052408;28;20391;-87
2022/02/25 11:17:21;;;;;;;11.93;2.38;;;;;;;25.84;27.75;101755.59;5052287;28;20031;-87
2022/02/25 11:19:48;;;;;;;7.53;2.13;;;;;;;25.03;28.36;101756.50;5052109;28;20478;-87
2022/02/25 11:22:14;;;;;;;13.93;3.15;;;;;;;25.82;28.18;101763.00;5052135;28;20051;-87
2022/02/25 11:24:40;;;;;;;13.27;2.88;;;;;;;25.89;28.13;101763.19;5032475;28;20542;-86